createdAt,value
2023-01-25T00:03:06.774Z,94.40
2023-01-25T00:06:34.114Z,94.38
2023-01-25T00:10:01.757Z,94.15
2023-01-25T00:13:28.910Z,94.12
2023-01-25T00:16:56.110Z,94.33
2023-01-25T00:20:23.563Z,94.70
2023-01-25T00:23:50.891Z,94.41
2023-01-25T00:27:18.051Z,94.51
2023-01-25T00:30:45.307Z,94.65
2023-01-25T00:34:45.453Z,94.49
2023-01-25T00:38:29.928Z,94.43
2023-01-25T00:41:57.210Z,94.85
2023-01-25T00:45:24.209Z,94.83
2023-01-25T00:48:54.136Z,94.51
2023-01-25T00:52:22.627Z,94.49
2023-01-25T00:55:55.997Z,94.20
2023-01-25T00:59:23.368Z,94.53
2023-01-25T01:02:50.751Z,94.46
2023-01-25T01:06:18.417Z,94.90
2023-01-25T01:09:45.904Z,94.87
2023-01-25T01:13:13.230Z,94.87
2023-01-25T01:16:42.447Z,94.55
2023-01-25T01:20:12.186Z,95.04
2023-01-25T01:23:39.991Z,94.90
2023-01-25T01:27:07.637Z,95.03
2023-01-25T01:30:34.530Z,95.15
2023-01-25T01:34:02.012Z,94.98
2023-01-25T01:37:29.330Z,95.03
2023-01-25T01:40:56.255Z,94.83
2023-01-25T01:44:37.478Z,95.00
2023-01-25T01:48:05.007Z,95.15
2023-01-25T01:51:42.236Z,95.16
2023-01-25T01:55:18.163Z,95.33
2023-01-25T01:58:46.515Z,95.40
2023-01-25T02:02:13.602Z,95.54
2023-01-25T02:05:48.710Z,95.61
2023-01-25T02:09:19.795Z,95.68
2023-01-25T02:12:49.215Z,95.64
2023-01-25T02:16:20.901Z,95.69
2023-01-25T02:19:55.556Z,95.94
2023-01-25T02:23:31.565Z,96.00
2023-01-25T02:26:59.138Z,96.05
2023-01-25T02:30:28.226Z,96.03
2023-01-25T02:33:55.710Z,96.14
2023-01-25T02:37:22.971Z,96.27
2023-01-25T02:40:57.068Z,96.14
2023-01-25T02:44:27.915Z,96.51
2023-01-25T02:47:56.480Z,96.25
2023-01-25T02:51:25.706Z,96.05
2023-01-25T02:54:52.987Z,96.15
2023-01-25T02:58:20.295Z,96.40
2023-01-25T03:01:48.406Z,96.31
2023-01-25T03:05:16.428Z,96.50
2023-01-25T03:08:44.051Z,96.55
2023-01-25T03:12:11.487Z,96.66
2023-01-25T03:15:39.297Z,96.67
2023-01-25T03:19:06.578Z,96.83
2023-01-25T03:22:33.876Z,96.56
2023-01-25T03:26:10.539Z,96.62
2023-01-25T03:29:40.057Z,96.34
2023-01-25T03:33:10.843Z,96.36
2023-01-25T03:36:37.802Z,96.29
2023-01-25T03:40:05.753Z,96.73
2023-01-25T03:43:33.593Z,96.83
2023-01-25T03:47:01.643Z,96.74
2023-01-25T03:50:29.135Z,96.83
2023-01-25T03:53:56.017Z,96.69
2023-01-25T03:57:23.168Z,96.82
2023-01-25T04:00:55.731Z,96.95
2023-01-25T04:04:23.315Z,96.78
2023-01-25T04:07:51.136Z,96.92
2023-01-25T04:11:20.883Z,96.63
2023-01-25T04:14:48.742Z,96.56
2023-01-25T04:18:21.295Z,96.58
2023-01-25T04:21:48.357Z,96.56
2023-01-25T04:25:15.996Z,96.39
2023-01-25T04:28:47.664Z,96.39
2023-01-25T04:32:14.749Z,96.58
2023-01-25T04:35:42.139Z,96.60
2023-01-25T04:39:09.296Z,96.66
2023-01-25T04:42:37.249Z,96.88
2023-01-25T04:46:05.581Z,96.77
2023-01-25T04:49:33.196Z,96.89
2023-01-25T04:53:00.284Z,96.87
2023-01-25T04:56:27.988Z,96.97
2023-01-25T04:59:55.974Z,96.99
2023-01-25T05:03:23.493Z,96.86
2023-01-25T05:06:50.485Z,96.76
2023-01-25T05:10:17.904Z,96.82
2023-01-25T05:14:04.814Z,96.92
2023-01-25T05:17:33.305Z,96.82
2023-01-25T05:21:00.451Z,96.75
2023-01-25T05:24:29.083Z,96.79
2023-01-25T05:27:57.186Z,96.89
2023-01-25T05:31:41.371Z,96.79
2023-01-25T05:35:11.544Z,97.06
2023-01-25T05:38:39.085Z,97.17
2023-01-25T05:42:13.834Z,97.04
2023-01-25T05:45:41.542Z,97.19
2023-01-25T05:49:09.159Z,97.17
2023-01-25T05:52:36.235Z,96.99
2023-01-25T05:56:10.260Z,96.87
2023-01-25T05:59:37.369Z,97.02
2023-01-25T06:03:05.652Z,97.10
2023-01-25T06:06:35.468Z,97.01
2023-01-25T06:10:03.953Z,96.96
2023-01-25T06:13:31.495Z,97.05
2023-01-25T06:16:58.820Z,96.71
2023-01-25T06:20:26.180Z,96.68
2023-01-25T06:24:05.589Z,96.74
2023-01-25T06:27:32.594Z,96.74
2023-01-25T06:31:04.548Z,96.79
2023-01-25T06:34:31.975Z,96.95
2023-01-25T06:37:59.843Z,97.03
2023-01-25T06:41:26.813Z,96.90
2023-01-25T06:44:54.089Z,96.74
2023-01-25T06:48:20.981Z,96.89
2023-01-25T06:51:47.861Z,96.86
2023-01-25T06:55:14.859Z,96.62
2023-01-25T06:58:42.214Z,96.83
2023-01-25T07:02:10.772Z,96.65
2023-01-25T07:05:37.840Z,96.79
2023-01-25T07:09:10.206Z,96.63
2023-01-25T07:12:37.106Z,96.37
2023-01-25T07:16:05.872Z,96.60
2023-01-25T07:19:32.772Z,96.61
2023-01-25T07:23:02.104Z,96.46
2023-01-25T07:26:29.336Z,96.43
2023-01-25T07:29:56.143Z,96.30
2023-01-25T07:33:23.033Z,96.38
2023-01-25T07:36:49.938Z,96.32
2023-01-25T07:40:18.214Z,96.40
2023-01-25T07:43:45.055Z,96.71
2023-01-25T07:47:12.000Z,96.50
2023-01-25T07:50:39.532Z,96.36
2023-01-25T07:54:07.745Z,96.24
2023-01-25T07:57:35.129Z,96.26
2023-01-25T08:01:09.080Z,96.20
2023-01-25T08:04:36.803Z,96.24
2023-01-25T08:08:03.960Z,96.22
2023-01-25T08:11:32.860Z,96.29
2023-01-25T08:14:59.845Z,96.14
2023-01-25T08:18:26.697Z,95.93
2023-01-25T08:21:53.824Z,96.35
2023-01-25T08:25:21.111Z,95.99
2023-01-25T08:28:48.315Z,96.11
2023-01-25T08:32:16.234Z,95.75
2023-01-25T08:35:43.029Z,95.95
2023-01-25T08:39:12.035Z,96.02
2023-01-25T08:42:39.163Z,95.81
2023-01-25T08:46:06.897Z,95.71
2023-01-25T08:49:35.430Z,95.96
2023-01-25T08:53:02.211Z,96.18
2023-01-25T08:56:29.051Z,96.06
2023-01-25T08:59:55.928Z,95.89
2023-01-25T09:03:22.749Z,95.91
2023-01-25T09:06:49.693Z,96.04
2023-01-25T09:10:17.573Z,95.95
2023-01-25T09:13:44.724Z,95.93
2023-01-25T09:17:12.105Z,95.37
2023-01-25T09:20:41.011Z,95.55
2023-01-25T09:24:09.725Z,95.53
2023-01-25T09:27:37.121Z,95.92
2023-01-25T09:31:21.136Z,95.41
2023-01-25T09:35:02.320Z,95.65
2023-01-25T09:38:29.879Z,95.49
2023-01-25T09:42:15.701Z,95.62
2023-01-25T09:45:42.688Z,95.31
2023-01-25T09:49:22.620Z,95.52
2023-01-25T09:53:03.748Z,95.50
2023-01-25T09:56:35.115Z,95.18
2023-01-25T10:00:08.455Z,95.16
2023-01-25T10:03:46.945Z,95.15
2023-01-25T10:07:25.623Z,95.11
2023-01-25T10:11:00.018Z,95.08
2023-01-25T10:14:27.933Z,94.84
2023-01-25T10:18:02.891Z,94.89
2023-01-25T10:21:36.493Z,94.90
2023-01-25T10:25:33.969Z,94.82
2023-01-25T10:29:10.068Z,94.88
2023-01-25T10:32:39.737Z,94.51
2023-01-25T10:36:18.168Z,94.52
2023-01-25T10:40:01.660Z,94.39
2023-01-25T10:43:28.691Z,94.46
2023-01-25T10:47:07.253Z,94.35
2023-01-25T10:50:53.745Z,94.53
2023-01-25T10:54:23.420Z,94.56
2023-01-25T10:57:52.739Z,94.45
2023-01-25T11:01:32.426Z,94.45
2023-01-25T11:04:59.425Z,94.36
2023-01-25T11:08:33.548Z,94.52
2023-01-25T11:12:02.123Z,94.42
2023-01-25T11:15:29.321Z,94.32
2023-01-25T11:18:57.886Z,94.27
2023-01-25T11:22:26.153Z,94.36
2023-01-25T11:25:53.866Z,94.36
2023-01-25T11:29:22.592Z,94.09
2023-01-25T11:32:49.748Z,94.14
2023-01-25T11:36:36.476Z,94.27
2023-01-25T11:40:15.960Z,94.04
2023-01-25T11:44:05.540Z,93.86
2023-01-25T11:47:48.913Z,94.09
2023-01-25T11:51:25.001Z,93.93
2023-01-25T11:55:05.644Z,93.99
2023-01-25T11:58:49.499Z,94.26
2023-01-25T12:02:41.287Z,93.81
2023-01-25T12:06:14.789Z,93.73
2023-01-25T12:09:56.740Z,93.82
2023-01-25T12:13:33.967Z,93.94
2023-01-25T12:17:14.575Z,94.06
2023-01-25T12:21:03.057Z,93.84
2023-01-25T12:24:45.646Z,93.54
2023-01-25T12:28:21.235Z,93.80
2023-01-25T12:31:55.821Z,93.78
2023-01-25T12:35:32.921Z,93.58
2023-01-25T12:39:05.044Z,93.43
2023-01-25T12:42:37.441Z,93.47
2023-01-25T12:46:10.486Z,93.52
2023-01-25T12:49:44.521Z,93.53
2023-01-25T12:53:18.847Z,93.65
2023-01-25T12:56:53.512Z,93.28
2023-01-25T13:00:31.870Z,93.48
2023-01-25T13:04:15.701Z,93.57
2023-01-25T13:07:54.738Z,93.69
2023-01-25T13:11:24.967Z,93.71
2023-01-25T13:14:52.153Z,93.89
2023-01-25T13:18:41.970Z,93.54
2023-01-25T13:22:10.871Z,93.66
2023-01-25T13:25:37.863Z,93.45
2023-01-25T13:29:05.098Z,93.66
2023-01-25T13:32:59.209Z,93.64
2023-01-25T13:36:47.990Z,93.97
2023-01-25T13:40:32.582Z,93.61
2023-01-25T13:44:22.955Z,93.61
2023-01-25T13:48:04.831Z,93.83
2023-01-25T13:51:36.835Z,93.64
2023-01-25T13:55:17.655Z,93.76
2023-01-25T13:58:49.344Z,93.74
2023-01-25T14:02:20.680Z,94.11
2023-01-25T14:05:54.603Z,93.69
2023-01-25T14:09:22.847Z,93.90
2023-01-25T14:12:50.663Z,94.11
2023-01-25T14:16:20.804Z,94.29
2023-01-25T14:19:50.901Z,93.97
2023-01-25T14:23:26.384Z,94.04
2023-01-25T14:26:54.069Z,93.99
2023-01-25T14:30:24.245Z,94.02
2023-01-25T14:33:57.762Z,93.77
2023-01-25T14:37:25.002Z,94.06
2023-01-25T14:40:54.410Z,94.05
2023-01-25T14:44:22.369Z,94.14
2023-01-25T14:47:59.122Z,94.01
2023-01-25T14:51:31.175Z,94.20
2023-01-25T14:55:00.389Z,94.19
2023-01-25T14:58:31.685Z,94.47
2023-01-25T15:02:00.897Z,94.39
2023-01-25T15:05:29.179Z,94.30
2023-01-25T15:08:56.710Z,94.35
2023-01-25T15:12:40.131Z,94.23
2023-01-25T15:16:07.857Z,94.30
2023-01-25T15:19:35.339Z,94.35
2023-01-25T15:23:07.460Z,94.53
2023-01-25T15:26:36.961Z,94.53
2023-01-25T15:30:05.035Z,94.61
2023-01-25T15:33:34.019Z,94.58
2023-01-25T15:37:01.317Z,94.70
2023-01-25T15:40:28.426Z,94.68
2023-01-25T15:43:55.470Z,94.52
2023-01-25T15:47:22.612Z,94.68
2023-01-25T15:50:49.921Z,94.93
2023-01-25T15:54:17.062Z,94.43
2023-01-25T15:57:46.980Z,94.72
2023-01-25T16:01:14.591Z,94.67
2023-01-25T16:04:42.223Z,94.79
2023-01-25T16:08:13.757Z,95.09
2023-01-25T16:11:40.979Z,94.85
2023-01-25T16:15:10.321Z,94.86
2023-01-25T16:18:37.343Z,94.68
2023-01-25T16:22:04.640Z,95.14
2023-01-25T16:25:32.112Z,94.85
2023-01-25T16:28:59.259Z,95.32
2023-01-25T16:32:26.526Z,94.99
2023-01-25T16:36:15.502Z,95.37
2023-01-25T16:39:42.565Z,94.80
2023-01-25T16:43:09.601Z,95.25
2023-01-25T16:46:36.563Z,95.01
2023-01-25T16:50:03.573Z,95.12
2023-01-25T16:53:30.615Z,95.17
2023-01-25T16:56:58.963Z,95.40
2023-01-25T17:00:27.578Z,94.98
2023-01-25T17:03:55.637Z,95.33
2023-01-25T17:07:22.912Z,95.36
2023-01-25T17:10:51.023Z,95.17
2023-01-25T17:14:20.471Z,95.09
2023-01-25T17:17:48.312Z,95.41
2023-01-25T17:21:17.790Z,95.27
2023-01-25T17:24:43.437Z,95.51
2023-01-25T17:28:10.974Z,95.27
2023-01-25T17:31:39.792Z,95.20
2023-01-25T17:35:08.403Z,95.51
2023-01-25T17:38:35.505Z,95.73
2023-01-25T17:42:02.832Z,95.68
2023-01-25T17:58:46.729Z,95.38
2023-01-25T18:02:14.573Z,95.00
2023-01-25T18:05:42.218Z,94.92
2023-01-25T18:09:09.999Z,94.71
2023-01-25T18:12:37.952Z,94.98
2023-01-25T18:16:05.764Z,95.05
2023-01-25T18:19:33.395Z,95.01
2023-01-25T18:23:00.712Z,95.14
2023-01-25T18:26:30.543Z,95.32
2023-01-25T18:30:04.241Z,95.03
2023-01-25T18:33:33.309Z,95.35
2023-01-25T18:37:01.247Z,95.50
2023-01-25T18:40:30.411Z,95.24
2023-01-25T18:43:58.740Z,95.36
2023-01-25T18:47:27.819Z,95.00
2023-01-25T18:50:55.433Z,95.41
2023-01-25T18:54:23.708Z,95.48
2023-01-25T18:57:51.701Z,95.73
2023-01-25T19:01:21.231Z,95.20
2023-01-25T19:04:49.973Z,95.39
2023-01-25T19:08:19.359Z,95.45
2023-01-25T19:11:47.783Z,95.38
2023-01-25T19:15:17.023Z,95.53
2023-01-25T19:18:47.191Z,95.71
2023-01-25T19:22:16.374Z,95.68
2023-01-25T19:25:42.968Z,95.33
2023-01-25T19:29:11.423Z,95.95
2023-01-25T19:32:40.224Z,95.61
2023-01-25T19:36:15.454Z,95.50
2023-01-25T19:39:44.904Z,95.79
2023-01-25T19:43:15.187Z,95.75
2023-01-25T19:46:44.887Z,96.04
2023-01-25T19:50:13.182Z,95.61
2023-01-25T19:53:46.432Z,95.71
2023-01-25T19:57:17.299Z,95.94
2023-01-25T20:00:46.753Z,95.85
2023-01-25T20:04:19.638Z,95.89
2023-01-25T20:07:48.376Z,96.03
2023-01-25T20:11:19.759Z,96.11
2023-01-25T20:14:48.591Z,95.96
2023-01-25T20:18:17.527Z,96.11
2023-01-25T20:21:47.386Z,95.87
2023-01-25T20:25:17.192Z,96.02
2023-01-25T20:28:49.425Z,95.94
2023-01-25T20:32:32.046Z,95.97
2023-01-25T20:36:05.650Z,95.90
2023-01-25T20:39:34.983Z,96.16
2023-01-25T20:43:02.127Z,96.34
2023-01-25T20:46:34.515Z,95.98
2023-01-25T20:50:04.132Z,96.14
2023-01-25T20:53:35.409Z,96.43
2023-01-25T20:57:04.835Z,96.51
2023-01-25T21:00:34.007Z,96.55
2023-01-25T21:04:03.875Z,96.18
2023-01-25T21:07:33.302Z,96.45
2023-01-25T21:11:03.533Z,96.48
2023-01-25T21:14:31.452Z,96.34
2023-01-25T21:17:58.953Z,96.52
2023-01-25T21:21:29.539Z,96.59
2023-01-25T21:24:57.121Z,96.44
2023-01-25T21:28:24.444Z,96.38
2023-01-25T21:31:53.290Z,96.45
2023-01-25T21:35:20.491Z,96.33
2023-01-25T21:38:48.731Z,96.38
2023-01-25T21:42:15.907Z,96.32
2023-01-25T21:46:01.065Z,96.71
2023-01-25T21:49:45.604Z,96.68
2023-01-25T21:53:12.954Z,96.70
2023-01-25T21:56:39.912Z,96.58
2023-01-25T22:00:09.079Z,96.63
2023-01-25T22:03:36.315Z,96.80
2023-01-25T22:07:03.481Z,96.67
2023-01-25T22:10:30.513Z,96.75
2023-01-25T22:13:58.237Z,97.06
2023-01-25T22:17:25.695Z,96.76
2023-01-25T22:20:59.788Z,96.89
2023-01-25T22:24:27.288Z,96.88
2023-01-25T22:28:00.998Z,96.88
2023-01-25T22:31:29.708Z,97.11
2023-01-25T22:34:57.132Z,97.07
2023-01-25T22:38:24.536Z,97.14
2023-01-25T22:41:51.494Z,97.07
2023-01-25T22:45:18.620Z,97.05
2023-01-25T22:48:45.768Z,96.94
2023-01-25T22:52:12.743Z,97.23
2023-01-25T22:55:39.784Z,97.23
2023-01-25T22:59:08.148Z,97.07
2023-01-25T23:02:37.164Z,97.15
2023-01-25T23:06:07.915Z,97.20
2023-01-25T23:09:34.951Z,97.16
2023-01-25T23:13:02.131Z,96.90
2023-01-25T23:16:29.105Z,97.16
2023-01-25T23:19:56.224Z,97.26
2023-01-25T23:23:23.429Z,97.31
2023-01-25T23:26:50.387Z,97.38
2023-01-25T23:30:18.643Z,97.46
2023-01-25T23:33:45.773Z,97.64
2023-01-25T23:37:14.911Z,97.66
2023-01-25T23:40:43.752Z,97.61
2023-01-25T23:44:10.711Z,97.59
2023-01-25T23:47:38.240Z,97.49
2023-01-25T23:51:05.886Z,97.68
2023-01-25T23:54:33.165Z,97.27
2023-01-25T23:58:00.190Z,97.74
